Buoy 52514

sailwx.info

Track history (hours):
 
Tides and Currents Weather Stations Pressure Air Temp Water Temp Dewpoint Dewpoint Depression Visibility Wind Speed Wind Dir Waves Ship Positions

Drifting buoy 52514

Last reported at 2016-Jun-26 10:00 UTC. Time now 2016-Jun-26 12:03 UTC.
Position N 23°06' E 133°29'.

Date/timePositionNaut miles runAvg speedWind from/ knotsBaromVisibWave heightAir tempDewpointWater temp
2016-Jun-26 10:00N 23°06' E 133°29'0 0.2
2016-Jun-26 07:00N 23°06' E 133°29'2 1.0
2016-Jun-26 05:00N 23°04' E 133°30'0 0.0
2016-Jun-26 04:00N 23°04' E 133°30'1 0.4
2016-Jun-26 01:00N 23°04' E 133°32'0 0.1
2016-Jun-25 22:00N 23°03' E 133°32'0 0.1
2016-Jun-25 21:00N 23°03' E 133°32'1 0.8
2016-Jun-25 20:00N 23°03' E 133°32'1 0.5
2016-Jun-25 19:00N 23°02' E 133°32'0 0.0
2016-Jun-25 18:00N 23°02' E 133°32'0 0.0
2016-Jun-25 17:00N 23°02' E 133°32'3 0.7
2016-Jun-25 13:00N 23°00' E 133°35'1 0.7
2016-Jun-25 12:00N 23°00' E 133°35'0 0.3
2016-Jun-25 11:00N 23°00' E 133°35'1 0.6
2016-Jun-25 10:00N 22°60' E 133°36'1 0.6
2016-Jun-25 08:00N 22°58' E 133°36'2 0.6
2016-Jun-25 04:00N 22°58' E 133°38'1 0.3
2016-Jun-25 01:00N 22°57' E 133°38'2 1.0
2016-Jun-24 23:00N 22°55' E 133°37'0 0.0
2016-Jun-24 22:00N 22°55' E 133°37'1 0.7
2016-Jun-24 21:00N 22°56' E 133°37'0 0.4
2016-Jun-24 20:00N 22°55' E 133°37'1 0.3
2016-Jun-24 18:00N 22°55' E 133°37'1 0.9
2016-Jun-24 17:00N 22°54' E 133°37'0 0.0
2016-Jun-24 16:00N 22°54' E 133°37'1 0.4
2016-Jun-24 12:00N 22°53' E 133°38'0 0.2
2016-Jun-24 11:00N 22°53' E 133°38'1 0.7
2016-Jun-24 10:00N 22°52' E 133°38'0 0.2
2016-Jun-24 09:00N 22°52' E 133°38'1 0.6
2016-Jun-24 08:00N 22°52' E 133°38'1 0.4
2016-Jun-24 06:00N 22°51' E 133°39'0 0.5
2016-Jun-24 05:00N 22°52' E 133°39'0 0.0
2016-Jun-24 04:00N 22°52' E 133°39'0 0.0
2016-Jun-24 03:00N 22°52' E 133°39'1 0.3
2016-Jun-24 01:00N 22°52' E 133°40'2 2.3
2016-Jun-24 00:00N 22°53' E 133°37'0 0.0
2016-Jun-23 23:00N 22°53' E 133°37'0 0.0
2016-Jun-23 22:00N 22°53' E 133°37'0 0.5
2016-Jun-23 21:00N 22°53' E 133°38'0 0.1
2016-Jun-23 20:00N 22°53' E 133°38'0 0.2
2016-Jun-23 18:00N 22°53' E 133°37'0 0.1
2016-Jun-23 17:00N 22°53' E 133°37'0 0.0
2016-Jun-23 16:00N 22°53' E 133°37'1 0.2
2016-Jun-23 13:00N 22°53' E 133°37'0 0.4
2016-Jun-23 12:00N 22°52' E 133°37'0 0.0
2016-Jun-23 11:00N 22°52' E 133°37'2 0.6
2016-Jun-23 08:00N 22°51' E 133°38'1 1.4
2016-Jun-23 07:00N 22°51' E 133°40'0 0.0
2016-Jun-23 06:00N 22°51' E 133°40'1 1.4
2016-Jun-23 05:00N 22°51' E 133°42'0 0.1
2016-Jun-23 04:00N 22°51' E 133°42'1 1.4
2016-Jun-23 03:00N 22°52' E 133°43'0 0.1
2016-Jun-23 02:00N 22°52' E 133°43'1 0.7
2016-Jun-23 01:00N 22°52' E 133°43'1 0.6
2016-Jun-23 00:00N 22°53' E 133°44'1 1.2
2016-Jun-22 23:00N 22°54' E 133°44'0 0.0
2016-Jun-22 22:00N 22°54' E 133°44'0 0.2
2016-Jun-22 21:00N 22°54' E 133°44'1 0.7
2016-Jun-22 20:00N 22°54' E 133°45'0 0.4
2016-Jun-22 19:00N 22°54' E 133°45'0 0.5
2016-Jun-22 18:00N 22°54' E 133°45'0 0.0
2016-Jun-22 17:00N 22°54' E 133°45'0 0.0
2016-Jun-22 16:00N 22°54' E 133°45'1 0.4
2016-Jun-22 13:00N 22°55' E 133°46'0 0.1
2016-Jun-22 12:00N 22°55' E 133°46'1 0.6
2016-Jun-22 11:00N 22°55' E 133°46'1 0.8
2016-Jun-22 10:00N 22°55' E 133°46'1 1.0
2016-Jun-22 09:00N 22°54' E 133°46'2 1.7
2016-Jun-22 08:00N 22°53' E 133°48'0 0.0
2016-Jun-22 07:00N 22°53' E 133°48'0 0.3
2016-Jun-22 06:00N 22°53' E 133°48'1 1.1
2016-Jun-22 05:00N 22°53' E 133°49'0 0.0
2016-Jun-22 04:00N 22°53' E 133°49'2 0.5
2016-Jun-22 00:00N 22°52' E 133°51'0 0.2
2016-Jun-21 21:00N 22°53' E 133°52'1 0.6
2016-Jun-21 19:00N 22°52' E 133°53'1 1.1
2016-Jun-21 18:00N 22°52' E 133°54'2 0.4
2016-Jun-21 13:00N 22°52' E 133°56'0 0.4
2016-Jun-21 12:00N 22°52' E 133°56'1 0.6
2016-Jun-21 11:00N 22°52' E 133°57'1 0.6
2016-Jun-21 09:00N 22°51' E 133°58'1 0.6
2016-Jun-21 08:00N 22°51' E 133°59'1 0.5
2016-Jun-21 07:00N 22°51' E 133°59'0 0.1
2016-Jun-21 06:00N 22°51' E 133°60'1 1.0
2016-Jun-21 05:00N 22°50' E 134°00'0 0.0
2016-Jun-21 04:00N 22°50' E 134°00'2 0.7
2016-Jun-21 01:00N 22°49' E 134°02'0 0.0
2016-Jun-21 00:00N 22°49' E 134°02'0 0.5
2016-Jun-20 23:00N 22°48' E 134°02'0 0.0
2016-Jun-20 22:00N 22°48' E 134°02'1 0.8
2016-Jun-20 21:00N 22°48' E 134°03'1 0.6
2016-Jun-20 20:00N 22°48' E 134°03'1 1.1
2016-Jun-20 19:00N 22°47' E 134°03'1 1.5
2016-Jun-20 18:00N 22°46' E 134°04'0 0.1
2016-Jun-20 17:00N 22°46' E 134°04'4 1.0
2016-Jun-20 13:00N 22°43' E 134°07'1 0.8
2016-Jun-20 12:00N 22°43' E 134°08'0 0.0
2016-Jun-20 11:00N 22°43' E 134°08'2 2.4
2016-Jun-20 10:00N 22°43' E 134°11'0 0.1
2016-Jun-20 09:00N 22°43' E 134°10'1 1.1
2016-Jun-20 08:00N 22°43' E 134°12'0 0.4
2016-Jun-20 07:00N 22°42' E 134°12'1 1.2
2016-Jun-20 06:00N 22°42' E 134°13'0 0.0
2016-Jun-20 04:00N 22°41' E 134°13'3 0.9
2016-Jun-20 01:00N 22°39' E 134°14'3 1.5
2016-Jun-19 23:00N 22°37' E 134°16'0 0.3
2016-Jun-19 22:00N 22°37' E 134°17'1 0.7
2016-Jun-19 21:00N 22°37' E 134°17'2 2.0
2016-Jun-19 20:00N 22°36' E 134°19'0 0.0
2016-Jun-19 19:00N 22°36' E 134°19'0 0.2
2016-Jun-19 17:00N 22°35' E 134°19'5 1.2
2016-Jun-19 13:00N 22°32' E 134°22'1 1.2
2016-Jun-19 12:00N 22°31' E 134°23'1 0.8
2016-Jun-19 11:00N 22°30' E 134°24'2 1.8
2016-Jun-19 10:00N 22°30' E 134°26'2 2.2
2016-Jun-19 09:00N 22°29' E 134°28'1 0.6
2016-Jun-19 08:00N 22°28' E 134°28'4 3.5
2016-Jun-19 07:00N 22°27' E 134°32'0 0.0
2016-Jun-19 05:00N 22°27' E 134°32'0 0.0
2016-Jun-19 04:00N 22°27' E 134°32'3 1.1
2016-Jun-19 01:00N 22°27' E 134°35'1 1.2
2016-Jun-19 00:00N 22°26' E 134°35'1 1.3
2016-Jun-18 23:00N 22°24' E 134°35'1 1.0
2016-Jun-18 22:00N 22°23' E 134°35'1 1.0
2016-Jun-18 21:00N 22°23' E 134°36'9 9.5
2016-Jun-18 20:00N 22°15' E 134°42'9 8.6
2016-Jun-18 19:00N 22°22' E 134°37'9 8.6
2016-Jun-18 18:00N 22°15' E 134°42'0 0.0
2016-Jun-18 17:00N 22°15' E 134°42'0 0.0
2016-Jun-18 13:00N 22°15' E 134°42'2 2.1
2016-Jun-18 12:00N 22°13' E 134°43'0 0.0
2016-Jun-18 11:00N 22°13' E 134°43'8 2.8
2016-Jun-18 08:00N 22°07' E 134°49'3 3.5
2016-Jun-18 07:00N 22°10' E 134°47'10 4.8
2016-Jun-18 05:00N 22°03' E 134°55'6 6.2
2016-Jun-18 04:00N 22°07' E 134°49'12 3.0
2016-Jun-18 00:00N 21°59' E 134°59'0 0.0
2016-Jun-17 22:00N 21°59' E 134°59'0 0.4
2016-Jun-17 21:00N 21°59' E 134°59'0 0.4
2016-Jun-17 20:00N 21°59' E 134°59'2 1.2
2016-Jun-17 18:00N 21°57' E 135°01'0 0.0
2016-Jun-17 17:00N 21°57' E 135°01'9 1.8
2016-Jun-17 12:00N 21°49' E 135°07'2 1.6
2016-Jun-17 11:00N 21°48' E 135°08'2 1.6
2016-Jun-17 10:00N 21°46' E 135°08'6 2.8
2016-Jun-17 08:00N 21°42' E 135°12'0 0.0
2016-Jun-17 07:00N 21°42' E 135°12'4 2.2
2016-Jun-17 05:00N 21°40' E 135°16'3 0.4
2016-Jun-16 21:00N 21°38' E 135°19'1 0.9
2016-Jun-16 20:00N 21°37' E 135°19'1 0.9
2016-Jun-16 19:00N 21°37' E 135°20'1 0.6
2016-Jun-16 18:00N 21°37' E 135°19'2 1.7
2016-Jun-16 17:00N 21°35' E 135°20'0 0.0
2016-Jun-16 16:00N 21°35' E 135°20'3 0.8
2016-Jun-16 13:00N 21°33' E 135°21'2 0.8
2016-Jun-16 11:00N 21°31' E 135°22'1 1.2
2016-Jun-16 10:00N 21°30' E 135°22'  
Track history (hours):
 
Tides and Currents Weather Stations Pressure Air Temp Water Temp Dewpoint Dewpoint Depression Visibility Wind Speed Wind Dir Waves Ship Positions

Drifting buoy 52514

Last reported at 2016-Jun-26 10:00 UTC. Time now 2016-Jun-26 12:03 UTC.
Position N 23°06' E 133°29'.

Date/timePositionNaut miles runAvg speedWind from/ knotsBaromVisibWave heightAir tempDewpointWater temp
2016-Jun-26 10:00N 23°06' E 133°29'0 0.2
2016-Jun-26 07:00N 23°06' E 133°29'2 1.0
2016-Jun-26 05:00N 23°04' E 133°30'0 0.0
2016-Jun-26 04:00N 23°04' E 133°30'1 0.4
2016-Jun-26 01:00N 23°04' E 133°32'0 0.1
2016-Jun-25 22:00N 23°03' E 133°32'0 0.1
2016-Jun-25 21:00N 23°03' E 133°32'1 0.8
2016-Jun-25 20:00N 23°03' E 133°32'1 0.5
2016-Jun-25 19:00N 23°02' E 133°32'0 0.0
2016-Jun-25 18:00N 23°02' E 133°32'0 0.0
2016-Jun-25 17:00N 23°02' E 133°32'3 0.7
2016-Jun-25 13:00N 23°00' E 133°35'1 0.7
2016-Jun-25 12:00N 23°00' E 133°35'0 0.3
2016-Jun-25 11:00N 23°00' E 133°35'1 0.6
2016-Jun-25 10:00N 22°60' E 133°36'1 0.6
2016-Jun-25 08:00N 22°58' E 133°36'2 0.6
2016-Jun-25 04:00N 22°58' E 133°38'1 0.3
2016-Jun-25 01:00N 22°57' E 133°38'2 1.0
2016-Jun-24 23:00N 22°55' E 133°37'0 0.0
2016-Jun-24 22:00N 22°55' E 133°37'1 0.7
2016-Jun-24 21:00N 22°56' E 133°37'0 0.4
2016-Jun-24 20:00N 22°55' E 133°37'1 0.3
2016-Jun-24 18:00N 22°55' E 133°37'1 0.9
2016-Jun-24 17:00N 22°54' E 133°37'0 0.0
2016-Jun-24 16:00N 22°54' E 133°37'1 0.4
2016-Jun-24 12:00N 22°53' E 133°38'0 0.2
2016-Jun-24 11:00N 22°53' E 133°38'1 0.7
2016-Jun-24 10:00N 22°52' E 133°38'0 0.2
2016-Jun-24 09:00N 22°52' E 133°38'1 0.6
2016-Jun-24 08:00N 22°52' E 133°38'1 0.4
2016-Jun-24 06:00N 22°51' E 133°39'0 0.5
2016-Jun-24 05:00N 22°52' E 133°39'0 0.0
2016-Jun-24 04:00N 22°52' E 133°39'0 0.0
2016-Jun-24 03:00N 22°52' E 133°39'1 0.3
2016-Jun-24 01:00N 22°52' E 133°40'2 2.3
2016-Jun-24 00:00N 22°53' E 133°37'0 0.0
2016-Jun-23 23:00N 22°53' E 133°37'0 0.0
2016-Jun-23 22:00N 22°53' E 133°37'0 0.5
2016-Jun-23 21:00N 22°53' E 133°38'0 0.1
2016-Jun-23 20:00N 22°53' E 133°38'0 0.2
2016-Jun-23 18:00N 22°53' E 133°37'0 0.1
2016-Jun-23 17:00N 22°53' E 133°37'0 0.0
2016-Jun-23 16:00N 22°53' E 133°37'1 0.2
2016-Jun-23 13:00N 22°53' E 133°37'0 0.4
2016-Jun-23 12:00N 22°52' E 133°37'0 0.0
2016-Jun-23 11:00N 22°52' E 133°37'2 0.6
2016-Jun-23 08:00N 22°51' E 133°38'1 1.4
2016-Jun-23 07:00N 22°51' E 133°40'0 0.0
2016-Jun-23 06:00N 22°51' E 133°40'1 1.4
2016-Jun-23 05:00N 22°51' E 133°42'0 0.1
2016-Jun-23 04:00N 22°51' E 133°42'1 1.4
2016-Jun-23 03:00N 22°52' E 133°43'0 0.1
2016-Jun-23 02:00N 22°52' E 133°43'1 0.7
2016-Jun-23 01:00N 22°52' E 133°43'1 0.6
2016-Jun-23 00:00N 22°53' E 133°44'1 1.2
2016-Jun-22 23:00N 22°54' E 133°44'0 0.0
2016-Jun-22 22:00N 22°54' E 133°44'0 0.2
2016-Jun-22 21:00N 22°54' E 133°44'1 0.7
2016-Jun-22 20:00N 22°54' E 133°45'0 0.4
2016-Jun-22 19:00N 22°54' E 133°45'0 0.5
2016-Jun-22 18:00N 22°54' E 133°45'0 0.0
2016-Jun-22 17:00N 22°54' E 133°45'0 0.0
2016-Jun-22 16:00N 22°54' E 133°45'1 0.4
2016-Jun-22 13:00N 22°55' E 133°46'0 0.1
2016-Jun-22 12:00N 22°55' E 133°46'1 0.6
2016-Jun-22 11:00N 22°55' E 133°46'1 0.8
2016-Jun-22 10:00N 22°55' E 133°46'1 1.0
2016-Jun-22 09:00N 22°54' E 133°46'2 1.7
2016-Jun-22 08:00N 22°53' E 133°48'0 0.0
2016-Jun-22 07:00N 22°53' E 133°48'0 0.3
2016-Jun-22 06:00N 22°53' E 133°48'1 1.1
2016-Jun-22 05:00N 22°53' E 133°49'0 0.0
2016-Jun-22 04:00N 22°53' E 133°49'2 0.5
2016-Jun-22 00:00N 22°52' E 133°51'0 0.2
2016-Jun-21 21:00N 22°53' E 133°52'1 0.6
2016-Jun-21 19:00N 22°52' E 133°53'1 1.1
2016-Jun-21 18:00N 22°52' E 133°54'2 0.4
2016-Jun-21 13:00N 22°52' E 133°56'0 0.4
2016-Jun-21 12:00N 22°52' E 133°56'1 0.6
2016-Jun-21 11:00N 22°52' E 133°57'1 0.6
2016-Jun-21 09:00N 22°51' E 133°58'1 0.6
2016-Jun-21 08:00N 22°51' E 133°59'1 0.5
2016-Jun-21 07:00N 22°51' E 133°59'0 0.1
2016-Jun-21 06:00N 22°51' E 133°60'1 1.0
2016-Jun-21 05:00N 22°50' E 134°00'0 0.0
2016-Jun-21 04:00N 22°50' E 134°00'2 0.7
2016-Jun-21 01:00N 22°49' E 134°02'0 0.0
2016-Jun-21 00:00N 22°49' E 134°02'0 0.5
2016-Jun-20 23:00N 22°48' E 134°02'0 0.0
2016-Jun-20 22:00N 22°48' E 134°02'1 0.8
2016-Jun-20 21:00N 22°48' E 134°03'1 0.6
2016-Jun-20 20:00N 22°48' E 134°03'1 1.1
2016-Jun-20 19:00N 22°47' E 134°03'1 1.5
2016-Jun-20 18:00N 22°46' E 134°04'0 0.1
2016-Jun-20 17:00N 22°46' E 134°04'4 1.0
2016-Jun-20 13:00N 22°43' E 134°07'1 0.8
2016-Jun-20 12:00N 22°43' E 134°08'0 0.0
2016-Jun-20 11:00N 22°43' E 134°08'2 2.4
2016-Jun-20 10:00N 22°43' E 134°11'0 0.1
2016-Jun-20 09:00N 22°43' E 134°10'1 1.1
2016-Jun-20 08:00N 22°43' E 134°12'0 0.4
2016-Jun-20 07:00N 22°42' E 134°12'1 1.2
2016-Jun-20 06:00N 22°42' E 134°13'0 0.0
2016-Jun-20 04:00N 22°41' E 134°13'3 0.9
2016-Jun-20 01:00N 22°39' E 134°14'3 1.5
2016-Jun-19 23:00N 22°37' E 134°16'0 0.3
2016-Jun-19 22:00N 22°37' E 134°17'1 0.7
2016-Jun-19 21:00N 22°37' E 134°17'2 2.0
2016-Jun-19 20:00N 22°36' E 134°19'0 0.0
2016-Jun-19 19:00N 22°36' E 134°19'0 0.2
2016-Jun-19 17:00N 22°35' E 134°19'5 1.2
2016-Jun-19 13:00N 22°32' E 134°22'1 1.2
2016-Jun-19 12:00N 22°31' E 134°23'1 0.8
2016-Jun-19 11:00N 22°30' E 134°24'2 1.8
2016-Jun-19 10:00N 22°30' E 134°26'2 2.2
2016-Jun-19 09:00N 22°29' E 134°28'1 0.6
2016-Jun-19 08:00N 22°28' E 134°28'4 3.5
2016-Jun-19 07:00N 22°27' E 134°32'0 0.0
2016-Jun-19 05:00N 22°27' E 134°32'0 0.0
2016-Jun-19 04:00N 22°27' E 134°32'3 1.1
2016-Jun-19 01:00N 22°27' E 134°35'1 1.2
2016-Jun-19 00:00N 22°26' E 134°35'1 1.3
2016-Jun-18 23:00N 22°24' E 134°35'1 1.0
2016-Jun-18 22:00N 22°23' E 134°35'1 1.0
2016-Jun-18 21:00N 22°23' E 134°36'9 9.5
2016-Jun-18 20:00N 22°15' E 134°42'9 8.6
2016-Jun-18 19:00N 22°22' E 134°37'9 8.6
2016-Jun-18 18:00N 22°15' E 134°42'0 0.0
2016-Jun-18 17:00N 22°15' E 134°42'0 0.0
2016-Jun-18 13:00N 22°15' E 134°42'2 2.1
2016-Jun-18 12:00N 22°13' E 134°43'0 0.0
2016-Jun-18 11:00N 22°13' E 134°43'8 2.8
2016-Jun-18 08:00N 22°07' E 134°49'3 3.5
2016-Jun-18 07:00N 22°10' E 134°47'10 4.8
2016-Jun-18 05:00N 22°03' E 134°55'6 6.2
2016-Jun-18 04:00N 22°07' E 134°49'12 3.0
2016-Jun-18 00:00N 21°59' E 134°59'0 0.0
2016-Jun-17 22:00N 21°59' E 134°59'0 0.4
2016-Jun-17 21:00N 21°59' E 134°59'0 0.4
2016-Jun-17 20:00N 21°59' E 134°59'2 1.2
2016-Jun-17 18:00N 21°57' E 135°01'0 0.0
2016-Jun-17 17:00N 21°57' E 135°01'9 1.8
2016-Jun-17 12:00N 21°49' E 135°07'2 1.6
2016-Jun-17 11:00N 21°48' E 135°08'2 1.6
2016-Jun-17 10:00N 21°46' E 135°08'6 2.8
2016-Jun-17 08:00N 21°42' E 135°12'0 0.0
2016-Jun-17 07:00N 21°42' E 135°12'4 2.2
2016-Jun-17 05:00N 21°40' E 135°16'3 0.4
2016-Jun-16 21:00N 21°38' E 135°19'1 0.9
2016-Jun-16 20:00N 21°37' E 135°19'1 0.9
2016-Jun-16 19:00N 21°37' E 135°20'1 0.6
2016-Jun-16 18:00N 21°37' E 135°19'2 1.7
2016-Jun-16 17:00N 21°35' E 135°20'0 0.0
2016-Jun-16 16:00N 21°35' E 135°20'3 0.8
2016-Jun-16 13:00N 21°33' E 135°21'2 0.8
2016-Jun-16 11:00N 21°31' E 135°22'1 1.2
2016-Jun-16 10:00N 21°30' E 135°22'  

Dump ship's entire track history